createdAt,value
2022-08-19T00:03:42.709Z,25.20
2022-08-19T00:08:44.657Z,24.83
2022-08-19T00:13:49.377Z,23.85
2022-08-19T00:18:51.454Z,24.45
2022-08-19T00:23:54.188Z,25.20
2022-08-19T00:28:56.528Z,24.70
2022-08-19T00:33:58.328Z,25.88
2022-08-19T00:39:00.299Z,26.65
2022-08-19T00:44:06.835Z,26.10
2022-08-19T00:49:16.196Z,25.48
2022-08-19T00:54:28.244Z,26.67
2022-08-19T01:00:00.780Z,26.38
2022-08-19T01:05:09.000Z,25.60
2022-08-19T01:10:16.204Z,28.25
2022-08-19T01:15:22.086Z,27.85
2022-08-19T01:20:25.448Z,29.80
2022-08-19T01:25:42.569Z,30.10
2022-08-19T01:30:50.903Z,30.05
2022-08-19T01:35:53.567Z,30.88
2022-08-19T01:40:56.095Z,31.73
2022-08-19T01:45:57.839Z,32.25
2022-08-19T01:50:59.543Z,33.17
2022-08-19T01:56:02.130Z,33.20
2022-08-19T02:01:05.167Z,32.85
2022-08-19T02:06:07.513Z,33.78
2022-08-19T02:11:09.275Z,34.88
2022-08-19T02:16:10.976Z,33.75
2022-08-19T02:21:13.858Z,33.92
2022-08-19T02:26:18.107Z,35.15
2022-08-19T02:31:22.673Z,36.28
2022-08-19T02:36:28.730Z,36.33
2022-08-19T02:41:33.953Z,34.92
2022-08-19T02:46:36.349Z,35.05
2022-08-19T02:51:45.100Z,34.25
2022-08-19T02:56:47.498Z,32.60
2022-08-19T03:01:49.233Z,31.27
2022-08-19T03:06:51.405Z,31.55
2022-08-19T03:11:53.193Z,32.05
2022-08-19T03:16:54.868Z,30.63
2022-08-19T03:21:56.572Z,29.08
2022-08-19T03:26:59.586Z,27.92
2022-08-19T03:32:04.766Z,26.00
2022-08-19T03:37:13.308Z,25.92
2022-08-19T03:42:38.237Z,24.58
2022-08-19T03:47:38.740Z,23.85
2022-08-19T03:52:40.912Z,23.65
2022-08-19T03:57:49.413Z,21.50
2022-08-19T04:02:58.151Z,22.17
2022-08-19T04:08:02.308Z,20.98
2022-08-19T04:13:06.296Z,21.95
2022-08-19T04:18:11.783Z,23.90
2022-08-19T04:23:14.941Z,26.00
2022-08-19T04:28:16.893Z,27.95
2022-08-19T04:33:23.998Z,29.35
2022-08-19T04:38:28.925Z,28.45
2022-08-19T04:43:31.550Z,28.63
2022-08-19T04:48:33.427Z,27.35
2022-08-19T04:53:38.554Z,29.35
2022-08-19T04:58:45.145Z,29.85
2022-08-19T05:03:46.919Z,28.63
2022-08-19T05:08:49.422Z,28.42
2022-08-19T05:13:51.598Z,30.67
2022-08-19T05:19:12.736Z,31.20
2022-08-19T05:24:15.619Z,32.53
2022-08-19T05:29:20.051Z,34.30
2022-08-19T05:34:26.935Z,33.45
2022-08-19T05:39:30.776Z,35.28
2022-08-19T05:44:34.580Z,33.55
2022-08-19T05:49:37.425Z,34.60
2022-08-19T05:54:43.522Z,33.42
2022-08-19T05:59:47.209Z,33.80
2022-08-19T06:04:49.013Z,33.50
2022-08-19T06:09:58.942Z,32.63
2022-08-19T06:15:12.293Z,32.00
2022-08-19T06:20:15.862Z,32.78
2022-08-19T06:25:18.218Z,32.85
2022-08-19T06:30:19.957Z,32.55
2022-08-19T06:35:21.771Z,31.38
2022-08-19T06:40:23.817Z,32.63
2022-08-19T06:45:35.674Z,32.53
2022-08-19T06:50:41.226Z,33.35
2022-08-19T06:55:42.917Z,33.38
2022-08-19T07:00:45.020Z,33.65
2022-08-19T07:05:47.277Z,32.28
2022-08-19T07:10:50.043Z,31.55
2022-08-19T07:15:51.786Z,32.55
2022-08-19T07:21:05.109Z,31.15
2022-08-19T07:26:15.494Z,30.48
2022-08-19T07:31:23.083Z,30.10
2022-08-19T07:36:33.073Z,30.77
2022-08-19T07:41:37.947Z,30.83
2022-08-19T07:46:42.515Z,30.15
2022-08-19T07:51:45.759Z,29.40
2022-08-19T07:56:47.761Z,28.25
2022-08-19T08:01:51.006Z,27.35
2022-08-19T08:07:12.808Z,28.02
2022-08-19T08:12:35.018Z,27.63
2022-08-19T08:17:49.679Z,28.83
2022-08-19T08:23:11.820Z,28.20
2022-08-19T08:28:17.758Z,28.30
2022-08-19T08:33:33.056Z,28.48
2022-08-19T08:38:41.038Z,28.23
2022-08-19T08:43:47.333Z,28.15
2022-08-19T08:48:58.691Z,26.73
2022-08-19T08:54:05.461Z,25.55
2022-08-19T08:59:23.060Z,27.05
2022-08-19T09:04:25.084Z,26.02
2022-08-19T09:09:36.536Z,24.70
2022-08-19T09:14:51.795Z,25.40
2022-08-19T09:20:05.157Z,23.33
2022-08-19T09:25:09.183Z,22.58
2022-08-19T09:30:16.364Z,24.05
2022-08-19T09:35:18.164Z,24.42
2022-08-19T09:40:21.138Z,25.65
2022-08-19T09:45:26.520Z,24.00
2022-08-19T09:50:28.324Z,25.77
2022-08-19T09:55:31.795Z,23.88
2022-08-19T10:00:34.400Z,25.58
2022-08-19T10:05:54.650Z,22.85
2022-08-19T10:10:58.854Z,22.35
2022-08-19T10:16:07.446Z,23.13
2022-08-19T10:21:15.706Z,19.75
2022-08-19T10:26:23.313Z,18.83
2022-08-19T10:32:02.666Z,18.58
2022-08-19T10:36:56.357Z,18.40
2022-08-19T10:41:58.921Z,17.92
2022-08-19T10:47:00.971Z,17.52
2022-08-19T10:52:23.760Z,16.10
2022-08-19T10:57:52.249Z,15.77
2022-08-19T11:02:56.705Z,15.73
2022-08-19T11:07:58.394Z,15.45
2022-08-19T11:13:03.366Z,14.15
2022-08-19T11:18:05.118Z,14.18
2022-08-19T11:23:15.056Z,14.18
2022-08-19T11:28:16.950Z,13.85
2022-08-19T11:33:18.893Z,13.00
2022-08-19T11:38:20.729Z,11.98
2022-08-19T11:43:22.612Z,11.38
2022-08-19T11:48:26.245Z,10.73
2022-08-19T11:53:27.968Z,10.65
2022-08-19T11:58:32.945Z,11.80
2022-08-19T12:03:35.175Z,13.55
2022-08-19T12:08:37.292Z,11.23
2022-08-19T12:13:39.781Z,11.88
2022-08-19T12:18:44.830Z,10.93
2022-08-19T12:23:47.075Z,12.07
2022-08-19T12:28:49.192Z,12.88
2022-08-19T12:33:51.245Z,11.13
2022-08-19T12:38:53.620Z,11.55
2022-08-19T12:43:55.330Z,13.30
2022-08-19T12:48:57.850Z,11.05
2022-08-19T12:54:00.485Z,12.07
2022-08-19T12:59:04.296Z,12.35
2022-08-19T13:04:06.132Z,10.43
2022-08-19T13:09:07.878Z,12.65
2022-08-19T13:14:09.958Z,11.60
2022-08-19T13:19:12.998Z,12.60
2022-08-19T13:24:14.749Z,13.05
2022-08-19T13:29:35.244Z,14.45
2022-08-19T13:34:37.971Z,12.50
2022-08-19T13:39:39.880Z,12.20
2022-08-19T13:44:41.668Z,12.25
2022-08-19T13:49:43.638Z,13.25
2022-08-19T13:54:45.363Z,11.60
2022-08-19T13:59:47.206Z,10.95
2022-08-19T14:04:48.988Z,10.90
2022-08-19T14:09:51.515Z,11.00
2022-08-19T14:14:53.188Z,12.68
2022-08-19T14:20:04.501Z,11.20
2022-08-19T14:25:16.146Z,11.73
2022-08-19T14:30:23.887Z,10.57
2022-08-19T14:35:27.727Z,9.88
2022-08-19T14:40:30.544Z,9.80
2022-08-19T14:45:36.694Z,10.38
2022-08-19T14:50:38.530Z,9.32
2022-08-19T14:55:45.140Z,9.48
2022-08-19T15:00:46.822Z,8.82
2022-08-19T15:05:50.719Z,9.15
2022-08-19T15:10:53.095Z,8.50
2022-08-19T15:15:55.332Z,8.95
2022-08-19T15:20:57.782Z,8.15
2022-08-19T15:26:20.896Z,8.98
2022-08-19T15:31:28.400Z,12.43
2022-08-19T15:36:30.796Z,14.55
2022-08-19T15:41:32.813Z,13.15
2022-08-19T15:46:37.894Z,13.57
2022-08-19T15:51:42.940Z,13.60
2022-08-19T15:57:03.471Z,13.55
2022-08-19T16:02:23.958Z,14.50
2022-08-19T16:07:34.158Z,14.15
2022-08-19T16:12:35.911Z,14.35
2022-08-19T16:17:38.080Z,13.52
2022-08-19T16:22:40.679Z,13.85
2022-08-19T16:27:45.640Z,13.77
2022-08-19T16:33:04.281Z,16.60
2022-08-19T16:38:07.091Z,14.27
2022-08-19T16:43:10.314Z,13.77
2022-08-19T16:48:12.038Z,13.65
2022-08-19T16:53:15.582Z,12.75
2022-08-19T16:58:20.618Z,12.35
2022-08-19T17:03:36.585Z,10.82
2022-08-19T17:08:38.799Z,12.15
2022-08-19T17:13:40.562Z,12.50
2022-08-19T17:18:45.309Z,12.35
2022-08-19T17:23:47.016Z,11.95
2022-08-19T17:28:51.726Z,12.52
2022-08-19T17:33:55.005Z,13.32
2022-08-19T17:39:00.388Z,13.18
2022-08-19T17:44:03.589Z,13.02
2022-08-19T17:49:05.345Z,12.15
2022-08-19T17:54:08.990Z,12.80
2022-08-19T17:59:14.250Z,18.83
2022-08-19T18:04:17.356Z,12.32
2022-08-19T18:09:19.096Z,12.18
2022-08-19T18:14:32.927Z,13.95
2022-08-19T18:19:41.415Z,13.73
2022-08-19T18:24:45.954Z,13.48
2022-08-19T18:29:47.967Z,12.25
2022-08-19T18:34:49.795Z,12.13
2022-08-19T18:40:10.301Z,12.02
2022-08-19T18:45:31.056Z,11.27
2022-08-19T18:50:32.903Z,11.57
2022-08-19T18:55:34.633Z,12.50
2022-08-19T19:00:36.885Z,13.52
2022-08-19T19:05:40.212Z,14.05
2022-08-19T19:10:42.276Z,13.68
2022-08-19T19:15:44.046Z,13.35
2022-08-19T19:20:45.802Z,18.48
2022-08-19T19:25:50.577Z,13.38
2022-08-19T19:30:58.419Z,13.85
2022-08-19T19:36:00.126Z,13.63
2022-08-19T19:41:02.381Z,13.68
2022-08-19T19:46:04.303Z,14.48
2022-08-19T19:51:09.452Z,13.52
2022-08-19T19:56:12.976Z,15.02
2022-08-19T20:01:21.092Z,15.65
2022-08-19T20:06:29.020Z,15.60
2022-08-19T20:11:36.036Z,15.90
2022-08-19T20:16:40.785Z,15.13
2022-08-19T20:21:50.723Z,15.35
2022-08-19T20:26:53.787Z,15.50
2022-08-19T20:31:59.091Z,14.90
2022-08-19T20:37:01.197Z,14.93
2022-08-19T20:42:03.055Z,15.52
2022-08-19T20:47:04.965Z,15.32
2022-08-19T20:52:06.982Z,15.80
2022-08-19T20:57:08.826Z,18.02
2022-08-19T21:02:11.189Z,18.60
2022-08-19T21:07:12.962Z,17.80
2022-08-19T21:12:15.153Z,17.10
2022-08-19T21:17:16.930Z,16.73
2022-08-19T21:22:18.868Z,17.92
2022-08-19T21:27:24.117Z,18.52
2022-08-19T21:32:26.002Z,17.25
2022-08-19T21:37:28.289Z,17.90
2022-08-19T21:42:30.152Z,17.67
2022-08-19T21:47:31.936Z,17.02
2022-08-19T21:52:34.325Z,16.88
2022-08-19T21:57:36.665Z,16.80
2022-08-19T22:02:39.098Z,16.70
2022-08-19T22:07:42.638Z,17.70
2022-08-19T22:12:47.273Z,17.83
2022-08-19T22:17:54.414Z,16.92
2022-08-19T22:23:02.072Z,17.13
2022-08-19T22:28:07.477Z,18.02
2022-08-19T22:33:17.630Z,17.20
2022-08-19T22:38:19.661Z,17.17
2022-08-19T22:43:24.797Z,16.35
2022-08-19T22:48:29.811Z,16.58
2022-08-19T22:53:33.702Z,16.92
2022-08-19T22:58:35.836Z,16.67
2022-08-19T23:03:37.561Z,16.05
2022-08-19T23:08:39.697Z,15.65
2022-08-19T23:13:42.184Z,17.63
2022-08-19T23:18:45.348Z,16.73
2022-08-19T23:23:47.402Z,18.65
2022-08-19T23:29:07.961Z,17.42
2022-08-19T23:34:09.667Z,18.52
2022-08-19T23:39:11.354Z,18.13
2022-08-19T23:44:14.621Z,19.27
2022-08-19T23:49:16.751Z,19.63
2022-08-19T23:54:18.499Z,19.45
2022-08-19T23:59:20.340Z,19.50
